Ocean Highway — H3IE — position and weather

sailwx.info

Track history (hours):
 
Tides and Currents Weather Stations Pressure Air Temp Water Temp Dewpoint Dewpoint Depression Visibility Wind Speed Wind Dir Waves Ship Positions

Ocean Highway

Last reported at 2015-Mar-01 07:11 UTC. Time now 2015-Mar-02 07:24 UTC.
Position N 34°56' E 140°09'.

Length 179.1 m; beam 32.2 m.

Type: Cargo ship. MMSI: 353951000.

Date/timePositionNaut miles runAvg speedWind from/ knotsBaromVisibWave heightAir tempDewpointWater temp
2015-Mar-01 07:11N 34°56' E 140°09'26413.3
2015-Feb-28 11:24N 34°02' E 134°57'1214.6
2015-Feb-28 10:33N 34°14' E 134°58'1413.9
2015-Feb-28 09:33N 34°26' E 135°06'1515.3
2015-Feb-28 08:33N 34°38' E 135°18'4 3.2
2015-Feb-28 07:28N 34°42' E 135°17'0 0.0
2015-Feb-28 06:16N 34°42' E 135°17'0 0.0
2015-Feb-28 05:22N 34°42' E 135°17'0 0.0
2015-Feb-28 04:28N 34°42' E 135°17'0 0.0
2015-Feb-28 03:16N 34°42' E 135°17'0 0.0
2015-Feb-28 02:28N 34°42' E 135°17'0 0.0
2015-Feb-28 01:22N 34°42' E 135°17'0 0.3
2015-Feb-28 00:33N 34°41' E 135°17'1211.7
2015-Feb-27 23:33N 34°30' E 135°15'1514.8
2015-Feb-27 22:33N 34°20' E 135°02'1312.9
2015-Feb-27 21:33N 34°07' E 134°60'  
2015-Feb-24 09:15N 35°01' E 139°41'1115.7
2015-Feb-24 08:33N 35°11' E 139°45'1010.3
2015-Feb-24 07:33N 35°21' E 139°42'7 6.2
2015-Feb-24 06:31N 35°27' E 139°41'0 0.0
2015-Feb-24 05:31N 35°27' E 139°41'0 0.0
2015-Feb-24 04:31N 35°27' E 139°41'0 0.0
2015-Feb-24 03:28N 35°27' E 139°41'0 0.0
2015-Feb-24 02:31N 35°27' E 139°41'0 0.0
2015-Feb-24 01:31N 35°27' E 139°41'0 0.0
2015-Feb-24 00:31N 35°27' E 139°41'0 0.0
2015-Feb-23 23:31N 35°27' E 139°41'0 0.0
2015-Feb-23 22:31N 35°27' E 139°41'2 1.8
2015-Feb-23 21:33N 35°26' E 139°42'10 9.5
2015-Feb-23 20:33N 35°17' E 139°45'10 9.6
2015-Feb-23 19:32N 35°07' E 139°46'  
Track history (hours):
 
Tides and Currents Weather Stations Pressure Air Temp Water Temp Dewpoint Dewpoint Depression Visibility Wind Speed Wind Dir Waves Ship Positions

Ocean Highway

Last reported at 2015-Mar-01 07:11 UTC. Time now 2015-Mar-02 07:24 UTC.
Position N 34°56' E 140°09'.

Length 179.1 m; beam 32.2 m.

Type: Cargo ship. MMSI: 353951000.

Date/timePositionNaut miles runAvg speedWind from/ knotsBaromVisibWave heightAir tempDewpointWater temp
2015-Mar-01 07:11N 34°56' E 140°09'26413.3
2015-Feb-28 11:24N 34°02' E 134°57'1214.6
2015-Feb-28 10:33N 34°14' E 134°58'1413.9
2015-Feb-28 09:33N 34°26' E 135°06'1515.3
2015-Feb-28 08:33N 34°38' E 135°18'4 3.2
2015-Feb-28 07:28N 34°42' E 135°17'0 0.0
2015-Feb-28 06:16N 34°42' E 135°17'0 0.0
2015-Feb-28 05:22N 34°42' E 135°17'0 0.0
2015-Feb-28 04:28N 34°42' E 135°17'0 0.0
2015-Feb-28 03:16N 34°42' E 135°17'0 0.0
2015-Feb-28 02:28N 34°42' E 135°17'0 0.0
2015-Feb-28 01:22N 34°42' E 135°17'0 0.3
2015-Feb-28 00:33N 34°41' E 135°17'1211.7
2015-Feb-27 23:33N 34°30' E 135°15'1514.8
2015-Feb-27 22:33N 34°20' E 135°02'1312.9
2015-Feb-27 21:33N 34°07' E 134°60'  
2015-Feb-24 09:15N 35°01' E 139°41'1115.7
2015-Feb-24 08:33N 35°11' E 139°45'1010.3
2015-Feb-24 07:33N 35°21' E 139°42'7 6.2
2015-Feb-24 06:31N 35°27' E 139°41'0 0.0
2015-Feb-24 05:31N 35°27' E 139°41'0 0.0
2015-Feb-24 04:31N 35°27' E 139°41'0 0.0
2015-Feb-24 03:28N 35°27' E 139°41'0 0.0
2015-Feb-24 02:31N 35°27' E 139°41'0 0.0
2015-Feb-24 01:31N 35°27' E 139°41'0 0.0
2015-Feb-24 00:31N 35°27' E 139°41'0 0.0
2015-Feb-23 23:31N 35°27' E 139°41'0 0.0
2015-Feb-23 22:31N 35°27' E 139°41'2 1.8
2015-Feb-23 21:33N 35°26' E 139°42'10 9.5
2015-Feb-23 20:33N 35°17' E 139°45'10 9.6
2015-Feb-23 19:32N 35°07' E 139°46'  

Dump ship's entire track history